sensor_id;sensor_type;location;lat;lon;timestamp;temperature;humidity
51215;DHT22;63849;47.546;19.254;2023-03-29T00:00:41;1.70;55.00
51215;DHT22;63849;47.546;19.254;2023-03-29T00:03:07;1.70;55.80
51215;DHT22;63849;47.546;19.254;2023-03-29T00:05:33;1.80;55.30
51215;DHT22;63849;47.546;19.254;2023-03-29T00:07:59;1.70;55.00
51215;DHT22;63849;47.546;19.254;2023-03-29T00:10:29;1.60;54.90
51215;DHT22;63849;47.546;19.254;2023-03-29T00:12:56;1.60;55.10
51215;DHT22;63849;47.546;19.254;2023-03-29T00:15:22;1.80;55.50
51215;DHT22;63849;47.546;19.254;2023-03-29T00:17:48;1.80;55.30
51215;DHT22;63849;47.546;19.254;2023-03-29T00:20:15;1.70;54.70
51215;DHT22;63849;47.546;19.254;2023-03-29T00:22:42;1.70;55.40
51215;DHT22;63849;47.546;19.254;2023-03-29T00:25:09;1.60;56.10
51215;DHT22;63849;47.546;19.254;2023-03-29T00:27:35;1.50;56.90
51215;DHT22;63849;47.546;19.254;2023-03-29T00:30:01;1.50;56.40
51215;DHT22;63849;47.546;19.254;2023-03-29T00:32:29;1.50;57.00
51215;DHT22;63849;47.546;19.254;2023-03-29T00:34:56;1.70;55.80
51215;DHT22;63849;47.546;19.254;2023-03-29T00:37:22;1.50;56.40
51215;DHT22;63849;47.546;19.254;2023-03-29T00:39:54;1.50;56.80
51215;DHT22;63849;47.546;19.254;2023-03-29T00:42:21;1.50;57.90
51215;DHT22;63849;47.546;19.254;2023-03-29T00:44:59;1.40;57.40
51215;DHT22;63849;47.546;19.254;2023-03-29T00:47:38;1.40;58.50
51215;DHT22;63849;47.546;19.254;2023-03-29T00:53:09;1.50;57.10
51215;DHT22;63849;47.546;19.254;2023-03-29T00:56:04;1.40;57.40
51215;DHT22;63849;47.546;19.254;2023-03-29T00:58:46;1.30;58.50
51215;DHT22;63849;47.546;19.254;2023-03-29T01:01:18;1.20;58.60
51215;DHT22;63849;47.546;19.254;2023-03-29T01:03:53;1.30;57.80
51215;DHT22;63849;47.546;19.254;2023-03-29T01:06:23;1.50;57.60
51215;DHT22;63849;47.546;19.254;2023-03-29T01:08:54;1.40;57.90
51215;DHT22;63849;47.546;19.254;2023-03-29T01:11:28;1.30;58.60
51215;DHT22;63849;47.546;19.254;2023-03-29T01:14:02;1.30;57.70
51215;DHT22;63849;47.546;19.254;2023-03-29T01:16:32;1.30;58.20
51215;DHT22;63849;47.546;19.254;2023-03-29T01:18:58;1.30;57.50
51215;DHT22;63849;47.546;19.254;2023-03-29T01:21:33;1.30;57.40
51215;DHT22;63849;47.546;19.254;2023-03-29T01:24:23;1.30;57.70
51215;DHT22;63849;47.546;19.254;2023-03-29T01:27:18;1.40;57.50
51215;DHT22;63849;47.546;19.254;2023-03-29T01:29:49;1.20;58.20
51215;DHT22;63849;47.546;19.254;2023-03-29T01:32:41;1.10;58.30
51215;DHT22;63849;47.546;19.254;2023-03-29T01:35:14;0.80;58.60
51215;DHT22;63849;47.546;19.254;2023-03-29T01:37:55;1.00;58.00
51215;DHT22;63849;47.546;19.254;2023-03-29T01:40:22;0.90;58.10
51215;DHT22;63849;47.546;19.254;2023-03-29T01:48:48;1.00;58.40
51215;DHT22;63849;47.546;19.254;2023-03-29T01:51:17;0.80;58.70
51215;DHT22;63849;47.546;19.254;2023-03-29T01:56:19;0.70;60.40
51215;DHT22;63849;47.546;19.254;2023-03-29T01:58:51;0.70;60.80
51215;DHT22;63849;47.546;19.254;2023-03-29T02:01:21;0.60;59.70
51215;DHT22;63849;47.546;19.254;2023-03-29T02:03:52;0.80;59.90
51215;DHT22;63849;47.546;19.254;2023-03-29T02:06:23;0.80;59.60
51215;DHT22;63849;47.546;19.254;2023-03-29T02:08:50;0.90;59.40
51215;DHT22;63849;47.546;19.254;2023-03-29T02:11:21;0.90;59.60
51215;DHT22;63849;47.546;19.254;2023-03-29T02:13:48;1.00;58.50
51215;DHT22;63849;47.546;19.254;2023-03-29T02:16:14;0.80;59.50
51215;DHT22;63849;47.546;19.254;2023-03-29T02:18:42;1.00;58.50
51215;DHT22;63849;47.546;19.254;2023-03-29T02:21:12;1.00;59.10
51215;DHT22;63849;47.546;19.254;2023-03-29T02:23:42;0.90;58.90
51215;DHT22;63849;47.546;19.254;2023-03-29T02:26:10;0.70;60.00
51215;DHT22;63849;47.546;19.254;2023-03-29T02:28:39;0.70;61.10
51215;DHT22;63849;47.546;19.254;2023-03-29T02:36:43;0.70;59.60
51215;DHT22;63849;47.546;19.254;2023-03-29T02:39:12;0.80;59.00
51215;DHT22;63849;47.546;19.254;2023-03-29T02:41:41;0.80;59.00
51215;DHT22;63849;47.546;19.254;2023-03-29T02:44:10;0.50;60.60
51215;DHT22;63849;47.546;19.254;2023-03-29T02:46:39;0.50;60.50
51215;DHT22;63849;47.546;19.254;2023-03-29T02:49:08;0.40;60.70
51215;DHT22;63849;47.546;19.254;2023-03-29T02:51:35;0.40;61.00
51215;DHT22;63849;47.546;19.254;2023-03-29T02:54:05;0.50;60.40
51215;DHT22;63849;47.546;19.254;2023-03-29T02:56:53;0.40;61.30
51215;DHT22;63849;47.546;19.254;2023-03-29T02:59:20;0.50;60.90
51215;DHT22;63849;47.546;19.254;2023-03-29T03:01:47;0.50;60.70
51215;DHT22;63849;47.546;19.254;2023-03-29T03:04:13;0.30;61.50
51215;DHT22;63849;47.546;19.254;2023-03-29T03:06:40;0.30;61.60
51215;DHT22;63849;47.546;19.254;2023-03-29T03:09:06;0.30;62.10
51215;DHT22;63849;47.546;19.254;2023-03-29T03:11:32;0.30;62.10
51215;DHT22;63849;47.546;19.254;2023-03-29T03:13:58;0.30;61.40
51215;DHT22;63849;47.546;19.254;2023-03-29T03:16:24;0.20;62.40
51215;DHT22;63849;47.546;19.254;2023-03-29T03:18:50;0.30;61.70
51215;DHT22;63849;47.546;19.254;2023-03-29T03:21:20;0.50;60.70
51215;DHT22;63849;47.546;19.254;2023-03-29T03:23:46;0.50;61.00
51215;DHT22;63849;47.546;19.254;2023-03-29T03:26:14;0.40;60.40
51215;DHT22;63849;47.546;19.254;2023-03-29T03:28:40;0.50;61.00
51215;DHT22;63849;47.546;19.254;2023-03-29T03:31:06;0.50;60.60
51215;DHT22;63849;47.546;19.254;2023-03-29T03:33:32;0.50;60.10
51215;DHT22;63849;47.546;19.254;2023-03-29T03:35:59;0.40;61.10
51215;DHT22;63849;47.546;19.254;2023-03-29T03:38:32;0.50;60.30
51215;DHT22;63849;47.546;19.254;2023-03-29T03:40:59;0.50;59.70
51215;DHT22;63849;47.546;19.254;2023-03-29T03:43:25;0.40;60.90
51215;DHT22;63849;47.546;19.254;2023-03-29T03:45:53;0.40;60.50
51215;DHT22;63849;47.546;19.254;2023-03-29T03:48:25;0.30;61.50
51215;DHT22;63849;47.546;19.254;2023-03-29T03:50:56;0.10;61.60
51215;DHT22;63849;47.546;19.254;2023-03-29T03:53:23;0.10;62.50
51215;DHT22;63849;47.546;19.254;2023-03-29T03:55:50;0.10;62.50
51215;DHT22;63849;47.546;19.254;2023-03-29T03:58:17;0.10;63.10
51215;DHT22;63849;47.546;19.254;2023-03-29T04:00:43;0.00;63.10
51215;DHT22;63849;47.546;19.254;2023-03-29T04:03:10;0.10;63.20
51215;DHT22;63849;47.546;19.254;2023-03-29T04:05:40;0.00;62.80
51215;DHT22;63849;47.546;19.254;2023-03-29T04:08:06;0.20;62.30
51215;DHT22;63849;47.546;19.254;2023-03-29T04:10:33;0.20;62.30
51215;DHT22;63849;47.546;19.254;2023-03-29T04:13:00;0.30;61.80
51215;DHT22;63849;47.546;19.254;2023-03-29T04:15:33;0.20;61.70
51215;DHT22;63849;47.546;19.254;2023-03-29T04:18:03;0.20;61.30
51215;DHT22;63849;47.546;19.254;2023-03-29T04:20:29;0.30;61.90
51215;DHT22;63849;47.546;19.254;2023-03-29T04:22:55;0.20;62.00
51215;DHT22;63849;47.546;19.254;2023-03-29T04:25:21;0.10;62.80
51215;DHT22;63849;47.546;19.254;2023-03-29T04:27:48;0.00;63.80
51215;DHT22;63849;47.546;19.254;2023-03-29T04:30:15;-0.10;63.10
51215;DHT22;63849;47.546;19.254;2023-03-29T04:32:41;-0.30;63.40
51215;DHT22;63849;47.546;19.254;2023-03-29T04:35:08;-0.40;66.10
51215;DHT22;63849;47.546;19.254;2023-03-29T04:37:34;-0.20;64.90
51215;DHT22;63849;47.546;19.254;2023-03-29T04:40:01;-0.10;64.80
51215;DHT22;63849;47.546;19.254;2023-03-29T04:42:29;0.00;63.50
51215;DHT22;63849;47.546;19.254;2023-03-29T04:44:55;0.00;63.40
51215;DHT22;63849;47.546;19.254;2023-03-29T04:47:23;0.00;63.40
51215;DHT22;63849;47.546;19.254;2023-03-29T04:49:49;0.00;64.20
51215;DHT22;63849;47.546;19.254;2023-03-29T04:52:15;-0.10;64.50
51215;DHT22;63849;47.546;19.254;2023-03-29T04:54:41;0.00;64.10
51215;DHT22;63849;47.546;19.254;2023-03-29T04:57:07;0.30;63.90
51215;DHT22;63849;47.546;19.254;2023-03-29T04:59:33;0.60;62.80
51215;DHT22;63849;47.546;19.254;2023-03-29T05:01:59;0.30;64.20
51215;DHT22;63849;47.546;19.254;2023-03-29T05:04:28;0.30;64.90
51215;DHT22;63849;47.546;19.254;2023-03-29T05:06:54;0.40;65.20
51215;DHT22;63849;47.546;19.254;2023-03-29T05:09:20;0.20;64.90
51215;DHT22;63849;47.546;19.254;2023-03-29T05:11:47;0.30;66.20
51215;DHT22;63849;47.546;19.254;2023-03-29T05:14:13;0.50;66.80
51215;DHT22;63849;47.546;19.254;2023-03-29T05:16:40;0.70;65.70
51215;DHT22;63849;47.546;19.254;2023-03-29T05:19:07;1.10;64.90
51215;DHT22;63849;47.546;19.254;2023-03-29T05:21:37;1.10;63.50
51215;DHT22;63849;47.546;19.254;2023-03-29T05:24:03;1.20;64.00
51215;DHT22;63849;47.546;19.254;2023-03-29T05:26:36;1.30;62.40
51215;DHT22;63849;47.546;19.254;2023-03-29T05:29:02;1.30;62.80
51215;DHT22;63849;47.546;19.254;2023-03-29T05:31:29;1.40;62.80
51215;DHT22;63849;47.546;19.254;2023-03-29T05:33:54;1.40;62.80
51215;DHT22;63849;47.546;19.254;2023-03-29T05:36:20;1.50;62.90
51215;DHT22;63849;47.546;19.254;2023-03-29T05:38:46;1.40;63.50
51215;DHT22;63849;47.546;19.254;2023-03-29T05:41:13;1.80;61.30
51215;DHT22;63849;47.546;19.254;2023-03-29T05:43:40;1.80;61.40
51215;DHT22;63849;47.546;19.254;2023-03-29T05:46:29;1.70;61.60
51215;DHT22;63849;47.546;19.254;2023-03-29T05:48:59;2.00;60.40
51215;DHT22;63849;47.546;19.254;2023-03-29T05:51:26;2.10;59.80
51215;DHT22;63849;47.546;19.254;2023-03-29T05:53:52;2.40;59.50
51215;DHT22;63849;47.546;19.254;2023-03-29T05:56:18;2.50;59.70
51215;DHT22;63849;47.546;19.254;2023-03-29T05:58:44;2.50;58.20
51215;DHT22;63849;47.546;19.254;2023-03-29T06:01:15;2.90;57.20
51215;DHT22;63849;47.546;19.254;2023-03-29T06:03:45;3.00;57.40
51215;DHT22;63849;47.546;19.254;2023-03-29T06:06:11;3.00;57.60
51215;DHT22;63849;47.546;19.254;2023-03-29T06:08:43;3.20;56.20
51215;DHT22;63849;47.546;19.254;2023-03-29T06:11:13;3.20;56.10
51215;DHT22;63849;47.546;19.254;2023-03-29T06:13:40;3.00;57.20
51215;DHT22;63849;47.546;19.254;2023-03-29T06:16:10;3.00;57.00
51215;DHT22;63849;47.546;19.254;2023-03-29T06:18:38;3.30;56.00
51215;DHT22;63849;47.546;19.254;2023-03-29T06:21:05;3.30;57.10
51215;DHT22;63849;47.546;19.254;2023-03-29T06:23:35;3.40;55.90
51215;DHT22;63849;47.546;19.254;2023-03-29T06:26:04;3.40;55.90
51215;DHT22;63849;47.546;19.254;2023-03-29T06:28:39;3.50;55.90
51215;DHT22;63849;47.546;19.254;2023-03-29T06:31:09;3.40;56.40
51215;DHT22;63849;47.546;19.254;2023-03-29T06:33:38;3.60;55.50
51215;DHT22;63849;47.546;19.254;2023-03-29T06:36:05;3.70;54.90
51215;DHT22;63849;47.546;19.254;2023-03-29T06:38:30;3.70;54.90
51215;DHT22;63849;47.546;19.254;2023-03-29T06:41:08;3.50;56.10
51215;DHT22;63849;47.546;19.254;2023-03-29T06:43:40;3.60;55.70
51215;DHT22;63849;47.546;19.254;2023-03-29T06:46:09;3.70;54.60
51215;DHT22;63849;47.546;19.254;2023-03-29T06:48:39;3.80;54.20
51215;DHT22;63849;47.546;19.254;2023-03-29T06:51:08;4.00;53.80
51215;DHT22;63849;47.546;19.254;2023-03-29T06:53:37;4.00;53.60
51215;DHT22;63849;47.546;19.254;2023-03-29T06:56:07;4.10;52.40
51215;DHT22;63849;47.546;19.254;2023-03-29T06:58:34;4.00;53.60
51215;DHT22;63849;47.546;19.254;2023-03-29T07:01:00;4.20;53.70
51215;DHT22;63849;47.546;19.254;2023-03-29T07:03:26;4.20;53.70
51215;DHT22;63849;47.546;19.254;2023-03-29T07:05:52;4.30;54.00
51215;DHT22;63849;47.546;19.254;2023-03-29T07:08:25;4.50;53.10
51215;DHT22;63849;47.546;19.254;2023-03-29T07:10:56;4.80;51.70
51215;DHT22;63849;47.546;19.254;2023-03-29T07:13:23;4.80;52.60
51215;DHT22;63849;47.546;19.254;2023-03-29T07:15:49;4.90;52.10
51215;DHT22;63849;47.546;19.254;2023-03-29T07:18:15;5.00;51.20
51215;DHT22;63849;47.546;19.254;2023-03-29T07:20:42;5.20;51.00
51215;DHT22;63849;47.546;19.254;2023-03-29T07:23:09;5.30;50.10
51215;DHT22;63849;47.546;19.254;2023-03-29T07:25:36;5.30;48.50
51215;DHT22;63849;47.546;19.254;2023-03-29T07:28:03;5.10;49.30
51215;DHT22;63849;47.546;19.254;2023-03-29T07:30:30;5.10;50.20
51215;DHT22;63849;47.546;19.254;2023-03-29T07:32:56;5.30;48.20
51215;DHT22;63849;47.546;19.254;2023-03-29T07:35:23;5.40;48.50
51215;DHT22;63849;47.546;19.254;2023-03-29T07:37:50;5.40;48.40
51215;DHT22;63849;47.546;19.254;2023-03-29T07:40:17;5.70;46.80
51215;DHT22;63849;47.546;19.254;2023-03-29T07:42:49;5.80;46.50
51215;DHT22;63849;47.546;19.254;2023-03-29T07:45:15;5.80;47.40
51215;DHT22;63849;47.546;19.254;2023-03-29T07:47:42;5.90;46.60
51215;DHT22;63849;47.546;19.254;2023-03-29T07:50:09;6.00;46.60
51215;DHT22;63849;47.546;19.254;2023-03-29T07:52:36;5.90;46.20
51215;DHT22;63849;47.546;19.254;2023-03-29T07:55:06;6.00;44.80
51215;DHT22;63849;47.546;19.254;2023-03-29T07:57:33;5.80;46.80
51215;DHT22;63849;47.546;19.254;2023-03-29T07:59:59;5.90;45.10
51215;DHT22;63849;47.546;19.254;2023-03-29T08:02:24;5.90;42.80
51215;DHT22;63849;47.546;19.254;2023-03-29T08:04:52;6.10;45.00
51215;DHT22;63849;47.546;19.254;2023-03-29T08:07:18;6.10;45.30
51215;DHT22;63849;47.546;19.254;2023-03-29T08:09:45;6.40;44.90
51215;DHT22;63849;47.546;19.254;2023-03-29T08:12:11;6.50;44.40
51215;DHT22;63849;47.546;19.254;2023-03-29T08:14:37;6.70;41.60
51215;DHT22;63849;47.546;19.254;2023-03-29T08:17:03;6.80;42.90
51215;DHT22;63849;47.546;19.254;2023-03-29T08:19:29;6.80;42.80
51215;DHT22;63849;47.546;19.254;2023-03-29T08:21:55;6.80;43.00
51215;DHT22;63849;47.546;19.254;2023-03-29T08:24:21;6.90;41.50
51215;DHT22;63849;47.546;19.254;2023-03-29T08:26:46;7.10;41.80
51215;DHT22;63849;47.546;19.254;2023-03-29T08:29:13;7.10;41.00
51215;DHT22;63849;47.546;19.254;2023-03-29T08:31:39;7.00;41.00
51215;DHT22;63849;47.546;19.254;2023-03-29T08:34:05;7.10;41.00
51215;DHT22;63849;47.546;19.254;2023-03-29T08:36:31;6.90;41.50
51215;DHT22;63849;47.546;19.254;2023-03-29T08:38:57;7.10;41.20
51215;DHT22;63849;47.546;19.254;2023-03-29T08:49:50;7.00;42.10
51215;DHT22;63849;47.546;19.254;2023-03-29T08:55:02;7.30;40.90
51215;DHT22;63849;47.546;19.254;2023-03-29T08:57:50;7.50;41.40
51215;DHT22;63849;47.546;19.254;2023-03-29T09:00:37;7.70;41.50
51215;DHT22;63849;47.546;19.254;2023-03-29T09:04:16;7.80;41.30
51215;DHT22;63849;47.546;19.254;2023-03-29T09:06:11;7.90;38.50
51215;DHT22;63849;47.546;19.254;2023-03-29T09:08:49;8.10;38.00
51215;DHT22;63849;47.546;19.254;2023-03-29T09:22:17;8.10;40.90
51215;DHT22;63849;47.546;19.254;2023-03-29T09:24:52;8.30;40.20
51215;DHT22;63849;47.546;19.254;2023-03-29T09:27:28;8.20;38.90
51215;DHT22;63849;47.546;19.254;2023-03-29T09:35:50;8.40;40.30
51215;DHT22;63849;47.546;19.254;2023-03-29T09:38:20;8.50;39.70
51215;DHT22;63849;47.546;19.254;2023-03-29T09:41:03;8.40;40.00
51215;DHT22;63849;47.546;19.254;2023-03-29T09:43:33;8.40;37.50
51215;DHT22;63849;47.546;19.254;2023-03-29T09:46:07;8.30;40.20
51215;DHT22;63849;47.546;19.254;2023-03-29T09:48:40;8.20;39.80
51215;DHT22;63849;47.546;19.254;2023-03-29T09:51:08;8.10;39.70
51215;DHT22;63849;47.546;19.254;2023-03-29T09:53:35;8.10;39.20
51215;DHT22;63849;47.546;19.254;2023-03-29T09:56:01;8.30;38.10
51215;DHT22;63849;47.546;19.254;2023-03-29T09:58:28;8.30;39.70
51215;DHT22;63849;47.546;19.254;2023-03-29T10:01:00;8.40;38.90
51215;DHT22;63849;47.546;19.254;2023-03-29T10:03:29;8.30;38.10
51215;DHT22;63849;47.546;19.254;2023-03-29T10:05:58;8.40;39.50
51215;DHT22;63849;47.546;19.254;2023-03-29T10:08:51;8.30;39.40
51215;DHT22;63849;47.546;19.254;2023-03-29T10:11:24;8.40;37.00
51215;DHT22;63849;47.546;19.254;2023-03-29T10:13:53;8.30;40.00
51215;DHT22;63849;47.546;19.254;2023-03-29T10:16:41;8.40;39.70
51215;DHT22;63849;47.546;19.254;2023-03-29T10:22:26;8.20;40.80
51215;DHT22;63849;47.546;19.254;2023-03-29T10:25:19;8.10;38.90
51215;DHT22;63849;47.546;19.254;2023-03-29T10:27:49;8.00;41.20
51215;DHT22;63849;47.546;19.254;2023-03-29T10:30:23;8.00;40.60
51215;DHT22;63849;47.546;19.254;2023-03-29T10:32:57;8.10;41.20
51215;DHT22;63849;47.546;19.254;2023-03-29T10:35:32;8.00;41.80
51215;DHT22;63849;47.546;19.254;2023-03-29T10:38:01;8.00;40.50
51215;DHT22;63849;47.546;19.254;2023-03-29T10:40:30;8.10;41.80
51215;DHT22;63849;47.546;19.254;2023-03-29T10:45:43;8.10;43.30
51215;DHT22;63849;47.546;19.254;2023-03-29T10:48:12;8.20;41.10
51215;DHT22;63849;47.546;19.254;2023-03-29T10:50:39;8.10;41.20
51215;DHT22;63849;47.546;19.254;2023-03-29T10:53:25;8.00;42.00
51215;DHT22;63849;47.546;19.254;2023-03-29T11:12:35;8.00;41.50
51215;DHT22;63849;47.546;19.254;2023-03-29T11:18:21;8.00;41.10
51215;DHT22;63849;47.546;19.254;2023-03-29T11:26:24;8.10;40.50
51215;DHT22;63849;47.546;19.254;2023-03-29T11:29:09;8.20;41.40
51215;DHT22;63849;47.546;19.254;2023-03-29T11:31:47;8.40;42.00
51215;DHT22;63849;47.546;19.254;2023-03-29T11:34:31;8.50;41.60
51215;DHT22;63849;47.546;19.254;2023-03-29T11:37:04;8.60;41.40
51215;DHT22;63849;47.546;19.254;2023-03-29T11:40:00;8.60;41.30
51215;DHT22;63849;47.546;19.254;2023-03-29T11:42:32;8.60;40.80
51215;DHT22;63849;47.546;19.254;2023-03-29T11:45:00;8.60;40.00
51215;DHT22;63849;47.546;19.254;2023-03-29T11:47:33;8.70;41.10
51215;DHT22;63849;47.546;19.254;2023-03-29T11:52:55;8.90;41.20
51215;DHT22;63849;47.546;19.254;2023-03-29T11:55:26;8.90;41.30
51215;DHT22;63849;47.546;19.254;2023-03-29T11:58:00;8.90;40.20
51215;DHT22;63849;47.546;19.254;2023-03-29T12:00:52;8.90;40.40
51215;DHT22;63849;47.546;19.254;2023-03-29T12:03:42;9.10;40.10
51215;DHT22;63849;47.546;19.254;2023-03-29T12:06:40;9.00;39.70
51215;DHT22;63849;47.546;19.254;2023-03-29T12:09:24;8.90;39.70
51215;DHT22;63849;47.546;19.254;2023-03-29T12:12:06;8.90;39.70
51215;DHT22;63849;47.546;19.254;2023-03-29T12:17:13;8.90;40.40
51215;DHT22;63849;47.546;19.254;2023-03-29T12:19:49;8.90;40.50
51215;DHT22;63849;47.546;19.254;2023-03-29T12:22:17;9.00;39.70
51215;DHT22;63849;47.546;19.254;2023-03-29T12:24:44;9.00;39.90
51215;DHT22;63849;47.546;19.254;2023-03-29T12:27:26;8.90;42.20
51215;DHT22;63849;47.546;19.254;2023-03-29T12:37:47;9.10;42.30
51215;DHT22;63849;47.546;19.254;2023-03-29T12:40:19;9.20;41.20
51215;DHT22;63849;47.546;19.254;2023-03-29T12:42:50;9.20;41.40
51215;DHT22;63849;47.546;19.254;2023-03-29T12:48:19;9.10;40.50
51215;DHT22;63849;47.546;19.254;2023-03-29T12:51:11;9.10;41.30
51215;DHT22;63849;47.546;19.254;2023-03-29T12:53:42;9.10;41.20
51215;DHT22;63849;47.546;19.254;2023-03-29T12:56:18;9.10;41.50
51215;DHT22;63849;47.546;19.254;2023-03-29T13:01:30;9.00;41.10
51215;DHT22;63849;47.546;19.254;2023-03-29T13:09:26;9.30;40.70
51215;DHT22;63849;47.546;19.254;2023-03-29T13:12:07;9.30;39.80
51215;DHT22;63849;47.546;19.254;2023-03-29T13:14:41;9.30;40.20
51215;DHT22;63849;47.546;19.254;2023-03-29T13:17:41;9.30;39.70
51215;DHT22;63849;47.546;19.254;2023-03-29T13:31:43;9.30;40.50
51215;DHT22;63849;47.546;19.254;2023-03-29T13:39:53;9.50;39.80
51215;DHT22;63849;47.546;19.254;2023-03-29T13:42:53;9.60;39.90
51215;DHT22;63849;47.546;19.254;2023-03-29T13:45:26;9.80;40.40
51215;DHT22;63849;47.546;19.254;2023-03-29T13:56:16;10.00;40.40
51215;DHT22;63849;47.546;19.254;2023-03-29T13:58:53;10.00;39.60
51215;DHT22;63849;47.546;19.254;2023-03-29T14:01:49;10.10;38.20
51215;DHT22;63849;47.546;19.254;2023-03-29T14:04:42;9.80;40.10
51215;DHT22;63849;47.546;19.254;2023-03-29T14:07:12;10.00;39.40
51215;DHT22;63849;47.546;19.254;2023-03-29T14:09:44;10.00;40.50
51215;DHT22;63849;47.546;19.254;2023-03-29T14:12:13;10.00;41.10
51215;DHT22;63849;47.546;19.254;2023-03-29T14:14:42;10.00;40.70
51215;DHT22;63849;47.546;19.254;2023-03-29T14:17:23;10.00;42.50
51215;DHT22;63849;47.546;19.254;2023-03-29T14:19:49;10.10;42.00
51215;DHT22;63849;47.546;19.254;2023-03-29T14:22:18;10.20;41.80
51215;DHT22;63849;47.546;19.254;2023-03-29T14:24:52;10.40;41.00
51215;DHT22;63849;47.546;19.254;2023-03-29T14:27:20;10.30;42.20
51215;DHT22;63849;47.546;19.254;2023-03-29T14:29:48;10.40;41.30
51215;DHT22;63849;47.546;19.254;2023-03-29T14:32:28;10.50;40.50
51215;DHT22;63849;47.546;19.254;2023-03-29T14:34:54;10.30;40.80
51215;DHT22;63849;47.546;19.254;2023-03-29T14:37:25;10.30;41.30
51215;DHT22;63849;47.546;19.254;2023-03-29T14:39:52;10.30;41.40
51215;DHT22;63849;47.546;19.254;2023-03-29T14:42:23;10.30;39.80
51215;DHT22;63849;47.546;19.254;2023-03-29T14:44:49;10.10;40.40
51215;DHT22;63849;47.546;19.254;2023-03-29T14:47:25;10.00;41.90
51215;DHT22;63849;47.546;19.254;2023-03-29T14:49:52;9.90;42.80
51215;DHT22;63849;47.546;19.254;2023-03-29T14:52:20;10.00;43.10
51215;DHT22;63849;47.546;19.254;2023-03-29T14:54:50;10.10;42.60
51215;DHT22;63849;47.546;19.254;2023-03-29T14:57:17;9.90;42.80
51215;DHT22;63849;47.546;19.254;2023-03-29T14:59:52;9.80;43.80
51215;DHT22;63849;47.546;19.254;2023-03-29T15:02:30;9.70;43.80
51215;DHT22;63849;47.546;19.254;2023-03-29T15:07:28;9.70;44.20
51215;DHT22;63849;47.546;19.254;2023-03-29T15:09:56;9.60;44.50
51215;DHT22;63849;47.546;19.254;2023-03-29T15:12:23;9.80;44.00
51215;DHT22;63849;47.546;19.254;2023-03-29T15:14:50;9.80;44.40
51215;DHT22;63849;47.546;19.254;2023-03-29T15:19:58;9.60;44.90
51215;DHT22;63849;47.546;19.254;2023-03-29T15:22:33;9.60;45.00
51215;DHT22;63849;47.546;19.254;2023-03-29T15:24:59;9.50;45.70
51215;DHT22;63849;47.546;19.254;2023-03-29T15:27:39;9.60;46.80
51215;DHT22;63849;47.546;19.254;2023-03-29T15:30:14;9.70;45.60
51215;DHT22;63849;47.546;19.254;2023-03-29T15:32:41;9.60;45.50
51215;DHT22;63849;47.546;19.254;2023-03-29T15:35:21;9.50;45.70
51215;DHT22;63849;47.546;19.254;2023-03-29T15:37:48;9.50;46.50
51215;DHT22;63849;47.546;19.254;2023-03-29T15:40:15;9.40;47.10
51215;DHT22;63849;47.546;19.254;2023-03-29T15:42:41;9.40;46.70
51215;DHT22;63849;47.546;19.254;2023-03-29T15:45:14;9.30;46.60
51215;DHT22;63849;47.546;19.254;2023-03-29T15:47:40;9.30;47.10
51215;DHT22;63849;47.546;19.254;2023-03-29T15:50:07;9.30;47.00
51215;DHT22;63849;47.546;19.254;2023-03-29T15:52:33;9.40;46.70
51215;DHT22;63849;47.546;19.254;2023-03-29T15:54:59;9.40;46.60
51215;DHT22;63849;47.546;19.254;2023-03-29T15:57:25;9.30;46.50
51215;DHT22;63849;47.546;19.254;2023-03-29T15:59:50;9.30;46.10
51215;DHT22;63849;47.546;19.254;2023-03-29T16:02:17;9.30;46.70
51215;DHT22;63849;47.546;19.254;2023-03-29T16:04:46;9.30;46.70
51215;DHT22;63849;47.546;19.254;2023-03-29T16:07:13;9.10;46.70
51215;DHT22;63849;47.546;19.254;2023-03-29T16:09:40;9.20;47.50
51215;DHT22;63849;47.546;19.254;2023-03-29T16:12:06;9.10;47.70
51215;DHT22;63849;47.546;19.254;2023-03-29T16:14:32;9.10;47.60
51215;DHT22;63849;47.546;19.254;2023-03-29T16:16:59;9.10;47.30
51215;DHT22;63849;47.546;19.254;2023-03-29T16:19:26;8.90;47.20
51215;DHT22;63849;47.546;19.254;2023-03-29T16:21:52;8.90;48.00
51215;DHT22;63849;47.546;19.254;2023-03-29T16:24:26;8.80;48.20
51215;DHT22;63849;47.546;19.254;2023-03-29T16:26:55;8.90;47.60
51215;DHT22;63849;47.546;19.254;2023-03-29T16:29:21;8.90;47.70
51215;DHT22;63849;47.546;19.254;2023-03-29T16:31:50;8.80;48.30
51215;DHT22;63849;47.546;19.254;2023-03-29T16:34:17;8.80;48.70
51215;DHT22;63849;47.546;19.254;2023-03-29T16:36:44;8.80;48.00
51215;DHT22;63849;47.546;19.254;2023-03-29T16:39:10;8.80;48.40
51215;DHT22;63849;47.546;19.254;2023-03-29T16:41:39;8.80;47.90
51215;DHT22;63849;47.546;19.254;2023-03-29T16:44:05;8.50;49.30
51215;DHT22;63849;47.546;19.254;2023-03-29T16:46:32;8.50;49.20
51215;DHT22;63849;47.546;19.254;2023-03-29T16:48:58;8.40;49.30
51215;DHT22;63849;47.546;19.254;2023-03-29T16:51:24;8.30;50.30
51215;DHT22;63849;47.546;19.254;2023-03-29T16:53:50;8.20;50.70
51215;DHT22;63849;47.546;19.254;2023-03-29T16:56:19;8.30;50.40
51215;DHT22;63849;47.546;19.254;2023-03-29T16:58:45;8.20;50.80
51215;DHT22;63849;47.546;19.254;2023-03-29T17:01:16;8.10;50.90
51215;DHT22;63849;47.546;19.254;2023-03-29T17:03:43;8.10;50.60
51215;DHT22;63849;47.546;19.254;2023-03-29T17:06:10;8.00;52.00
51215;DHT22;63849;47.546;19.254;2023-03-29T17:08:37;8.00;51.90
51215;DHT22;63849;47.546;19.254;2023-03-29T17:11:03;8.00;51.30
51215;DHT22;63849;47.546;19.254;2023-03-29T17:13:30;8.00;51.80
51215;DHT22;63849;47.546;19.254;2023-03-29T17:15:56;7.90;52.10
51215;DHT22;63849;47.546;19.254;2023-03-29T17:18:24;7.80;51.90
51215;DHT22;63849;47.546;19.254;2023-03-29T17:20:52;7.80;52.40
51215;DHT22;63849;47.546;19.254;2023-03-29T17:23:19;7.70;53.20
51215;DHT22;63849;47.546;19.254;2023-03-29T17:25:45;7.60;53.60
51215;DHT22;63849;47.546;19.254;2023-03-29T17:28:11;7.50;53.70
51215;DHT22;63849;47.546;19.254;2023-03-29T17:30:37;7.50;52.90
51215;DHT22;63849;47.546;19.254;2023-03-29T17:33:03;7.50;53.20
51215;DHT22;63849;47.546;19.254;2023-03-29T17:35:29;7.60;52.90
51215;DHT22;63849;47.546;19.254;2023-03-29T17:37:55;7.50;52.80
51215;DHT22;63849;47.546;19.254;2023-03-29T17:40:22;7.50;53.60
51215;DHT22;63849;47.546;19.254;2023-03-29T17:42:48;7.30;53.90
51215;DHT22;63849;47.546;19.254;2023-03-29T17:45:15;7.40;54.20
51215;DHT22;63849;47.546;19.254;2023-03-29T17:47:41;7.40;54.00
51215;DHT22;63849;47.546;19.254;2023-03-29T17:50:08;7.30;53.80
51215;DHT22;63849;47.546;19.254;2023-03-29T17:52:34;7.30;54.60
51215;DHT22;63849;47.546;19.254;2023-03-29T17:55:00;7.30;55.00
51215;DHT22;63849;47.546;19.254;2023-03-29T17:57:26;7.30;54.30
51215;DHT22;63849;47.546;19.254;2023-03-29T17:59:52;7.30;54.40